Time;durP1;ratioP1;P1;durP2;ratioP2;P2;SDS_P1;SDS_P2;PMS_P1;PMS_P2;Temp;Humidity;BMP_temperature;BMP_pressure;BME280_temperature;BME280_humidity;BME280_pressure;Samples;Min_cycle;Max_cycle;Signal;HPM_P1;HPM_P2
2023/09/22 00:00:43;;;;;;;1.20;0.60;;;16.90;99.90;;;;;;4951561;29;20672;-81
2023/09/22 00:03:09;;;;;;;1.67;0.70;;;16.90;99.90;;;;;;4957212;28;20587;-81
2023/09/22 00:05:35;;;;;;;1.60;0.70;;;16.90;99.90;;;;;;4959215;29;20617;-81
2023/09/22 00:08:01;;;;;;;2.10;0.67;;;16.80;99.90;;;;;;4950666;29;20625;-81
2023/09/22 00:10:27;;;;;;;1.77;0.80;;;16.80;99.90;;;;;;4968392;29;20620;-82
2023/09/22 00:12:54;;;;;;;1.50;0.70;;;16.70;99.90;;;;;;4939470;29;20191;-81
2023/09/22 00:15:21;;;;;;;1.70;0.80;;;16.60;99.90;;;;;;4936170;29;20200;-81
2023/09/22 00:17:47;;;;;;;2.37;0.80;;;16.60;99.90;;;;;;4960073;29;20577;-81
2023/09/22 00:20:15;;;;;;;1.60;0.73;;;16.60;99.90;;;;;;4941001;29;20640;-81
2023/09/22 00:22:42;;;;;;;6.10;0.80;;;16.60;99.90;;;;;;4956773;29;20585;-81
2023/09/22 00:25:09;;;;;;;3.47;0.80;;;16.50;99.90;;;;;;4954491;29;20771;-81
2023/09/22 00:27:35;;;;;;;1.50;0.70;;;16.50;99.90;;;;;;4917888;29;20612;-81
2023/09/22 00:30:02;;;;;;;1.60;0.80;;;16.40;99.90;;;;;;4920476;29;20663;-80
2023/09/22 00:32:28;;;;;;;1.40;0.80;;;16.40;99.90;;;;;;4935813;29;20627;-81
2023/09/22 00:34:54;;;;;;;3.00;1.30;;;16.30;99.90;;;;;;4938803;29;21228;-81
2023/09/22 00:37:20;;;;;;;1.60;0.80;;;16.30;99.90;;;;;;4942925;29;20597;-80
2023/09/22 00:39:46;;;;;;;1.90;0.70;;;16.30;99.90;;;;;;4947899;29;20184;-80
2023/09/22 00:42:12;;;;;;;1.57;0.73;;;16.30;99.90;;;;;;4942847;29;20914;-80
2023/09/22 00:44:38;;;;;;;1.40;0.70;;;16.20;99.90;;;;;;4964359;28;20193;-80
2023/09/22 00:47:06;;;;;;;1.50;0.60;;;16.20;99.90;;;;;;4954260;29;20181;-81
2023/09/22 00:49:33;;;;;;;2.87;0.70;;;16.10;99.90;;;;;;4958151;29;20187;-81
2023/09/22 00:51:59;;;;;;;1.60;0.70;;;16.10;99.90;;;;;;4966510;29;20688;-81
2023/09/22 00:54:25;;;;;;;1.40;0.60;;;16.10;99.90;;;;;;4938691;29;20629;-81
2023/09/22 00:56:52;;;;;;;3.97;0.57;;;16.00;99.90;;;;;;4964097;29;20600;-80
2023/09/22 00:59:18;;;;;;;3.20;0.60;;;16.00;99.90;;;;;;4965742;28;20637;-80
2023/09/22 01:01:45;;;;;;;3.70;0.70;;;16.00;99.90;;;;;;4959169;29;20632;-81
2023/09/22 01:04:11;;;;;;;1.40;0.70;;;15.90;99.90;;;;;;4956512;29;20640;-80
2023/09/22 01:06:38;;;;;;;2.03;0.70;;;15.90;99.90;;;;;;4950983;29;20629;-80
2023/09/22 01:09:05;;;;;;;2.17;0.70;;;15.90;99.90;;;;;;4958780;28;20660;-81
2023/09/22 01:11:35;;;;;;;2.00;0.70;;;15.90;99.90;;;;;;4953172;28;20779;-80
2023/09/22 01:14:02;;;;;;;1.70;0.80;;;15.90;99.90;;;;;;4955854;28;20669;-80
2023/09/22 01:16:29;;;;;;;2.13;0.70;;;15.90;99.90;;;;;;4962059;28;20596;-80
2023/09/22 01:18:55;;;;;;;2.23;0.70;;;15.80;99.90;;;;;;4957544;28;20608;-81
2023/09/22 01:21:31;;;;;;;1.40;0.80;;;15.80;99.90;;;;;;4962523;29;20584;-80
2023/09/22 01:24:00;;;;;;;1.83;0.70;;;15.80;99.90;;;;;;4966876;28;20659;-81
2023/09/22 01:26:27;;;;;;;1.53;0.60;;;15.80;99.90;;;;;;4937953;29;20589;-80
2023/09/22 01:28:53;;;;;;;2.23;0.70;;;15.70;99.90;;;;;;4963262;29;20581;-81
2023/09/22 01:31:19;;;;;;;1.87;0.80;;;15.70;99.90;;;;;;4946792;29;20607;-81
2023/09/22 01:33:47;;;;;;;1.97;0.80;;;15.70;99.90;;;;;;4946368;29;20223;-80
2023/09/22 01:36:14;;;;;;;1.80;0.70;;;15.70;99.90;;;;;;4939786;29;20602;-81
2023/09/22 01:38:40;;;;;;;1.90;0.80;;;15.70;99.90;;;;;;4921537;29;20589;-81
2023/09/22 01:41:06;;;;;;;2.43;0.87;;;15.60;99.90;;;;;;4958042;29;20599;-80
2023/09/22 01:43:32;;;;;;;1.40;0.80;;;15.60;99.90;;;;;;4947945;29;20192;-81
2023/09/22 01:45:58;;;;;;;2.00;0.70;;;15.60;99.90;;;;;;4952296;28;20665;-81
2023/09/22 01:48:24;;;;;;;2.03;0.70;;;15.70;99.90;;;;;;4961844;29;20601;-81
2023/09/22 01:50:50;;;;;;;1.83;1.00;;;15.60;99.90;;;;;;4963254;29;20631;-81
2023/09/22 01:53:16;;;;;;;2.00;0.97;;;15.60;99.90;;;;;;4957430;29;20261;-81
2023/09/22 01:55:42;;;;;;;3.83;0.80;;;15.60;99.90;;;;;;4962095;29;20579;-79
2023/09/22 01:58:08;;;;;;;2.03;0.90;;;15.60;99.90;;;;;;4958786;28;20619;-80
2023/09/22 02:00:37;;;;;;;1.93;0.80;;;15.60;99.90;;;;;;4953362;29;20612;-80
2023/09/22 02:03:05;;;;;;;2.80;1.00;;;15.60;99.90;;;;;;4939787;29;20620;-80
2023/09/22 02:05:31;;;;;;;2.90;0.80;;;15.60;99.90;;;;;;4964198;29;20628;-80
2023/09/22 02:08:00;;;;;;;1.97;0.87;;;15.60;99.90;;;;;;4970380;28;20595;-80
2023/09/22 02:10:26;;;;;;;1.70;0.70;;;15.60;99.90;;;;;;4957810;29;20184;-80
2023/09/22 02:12:52;;;;;;;2.37;1.00;;;15.50;99.90;;;;;;4946687;29;20603;-80
2023/09/22 02:15:17;;;;;;;1.97;0.87;;;15.50;99.90;;;;;;4956402;29;20301;-80
2023/09/22 02:17:44;;;;;;;1.70;0.80;;;15.50;99.90;;;;;;4942180;29;20209;-80
2023/09/22 02:20:24;;;;;;;1.40;0.80;;;15.40;99.90;;;;;;4938339;29;20187;-80
2023/09/22 02:22:52;;;;;;;2.33;0.70;;;15.40;99.90;;;;;;4958116;28;20672;-81
2023/09/22 02:25:19;;;;;;;2.57;0.80;;;15.40;99.90;;;;;;4952105;29;20728;-81
2023/09/22 02:27:47;;;;;;;2.00;0.90;;;15.40;99.90;;;;;;4953122;29;20609;-80
2023/09/22 02:30:14;;;;;;;2.03;1.00;;;15.30;99.90;;;;;;4969775;29;20680;-81
2023/09/22 02:32:42;;;;;;;1.60;0.77;;;15.30;99.90;;;;;;4953784;29;20609;-80
2023/09/22 02:35:08;;;;;;;2.63;0.70;;;15.30;99.90;;;;;;4936919;29;20743;-81
2023/09/22 02:37:35;;;;;;;3.40;1.17;;;15.30;99.90;;;;;;4941261;29;20593;-81
2023/09/22 02:40:01;;;;;;;1.90;0.90;;;15.20;99.90;;;;;;4956986;29;20187;-81
2023/09/22 02:42:26;;;;;;;2.27;1.07;;;15.30;99.90;;;;;;4938507;23;21255;-75
2023/09/22 02:44:53;;;;;;;1.60;0.83;;;15.20;99.90;;;;;;4916865;29;20732;-75
2023/09/22 02:47:19;;;;;;;2.17;1.00;;;15.30;99.90;;;;;;4917199;29;20680;-75
2023/09/22 02:49:45;;;;;;;2.17;0.80;;;15.30;99.90;;;;;;4932822;29;20177;-75
2023/09/22 02:52:10;;;;;;;1.70;1.10;;;15.30;99.90;;;;;;4929558;29;20700;-75
2023/09/22 02:54:36;;;;;;;2.33;1.17;;;15.30;99.90;;;;;;4929560;29;20595;-75
2023/09/22 02:57:03;;;;;;;1.97;1.23;;;15.20;99.90;;;;;;4913554;29;20230;-75
2023/09/22 02:59:30;;;;;;;2.17;0.77;;;15.20;99.90;;;;;;4882339;29;20633;-75
2023/09/22 03:01:57;;;;;;;2.80;1.17;;;15.20;99.90;;;;;;4914814;29;20756;-75
2023/09/22 03:04:23;;;;;;;2.10;0.80;;;15.20;99.90;;;;;;4914533;29;20653;-75
2023/09/22 03:06:49;;;;;;;1.60;0.80;;;15.20;99.90;;;;;;4897934;29;20997;-75
2023/09/22 03:09:16;;;;;;;1.90;0.90;;;15.20;99.90;;;;;;4928812;29;20591;-74
2023/09/22 03:11:42;;;;;;;2.47;0.80;;;15.20;99.90;;;;;;4929205;29;21201;-75
2023/09/22 03:14:08;;;;;;;3.50;0.80;;;15.20;99.90;;;;;;4914407;29;20654;-75
2023/09/22 03:16:34;;;;;;;1.60;0.80;;;15.20;99.90;;;;;;4929423;29;20191;-75
2023/09/22 03:19:00;;;;;;;2.40;1.27;;;15.20;99.90;;;;;;4913384;29;20190;-75
2023/09/22 03:21:26;;;;;;;3.17;0.90;;;15.20;99.90;;;;;;4913398;29;20685;-75
2023/09/22 03:23:53;;;;;;;2.10;1.00;;;15.10;99.90;;;;;;4913114;29;20205;-75
2023/09/22 03:26:20;;;;;;;2.10;0.97;;;15.10;99.90;;;;;;4913250;29;20177;-75
2023/09/22 03:28:46;;;;;;;2.43;0.90;;;15.10;99.90;;;;;;4913273;29;20589;-75
2023/09/22 03:31:12;;;;;;;2.60;0.70;;;15.10;99.90;;;;;;4897556;29;21156;-75
2023/09/22 03:33:41;;;;;;;1.73;0.70;;;15.10;99.90;;;;;;4913048;29;20658;-75
2023/09/22 03:36:10;;;;;;;3.37;0.80;;;15.10;99.90;;;;;;4913221;29;20601;-75
2023/09/22 03:38:41;;;;;;;1.90;0.80;;;15.10;99.90;;;;;;4913236;29;20605;-75
2023/09/22 03:41:07;;;;;;;1.67;0.87;;;15.10;99.90;;;;;;4881374;29;20598;-74
2023/09/22 03:43:34;;;;;;;2.90;1.10;;;15.20;99.90;;;;;;4912725;29;20613;-75
2023/09/22 03:46:00;;;;;;;4.07;0.80;;;15.20;99.90;;;;;;4912909;29;20631;-74
2023/09/22 03:48:26;;;;;;;2.20;0.80;;;15.20;99.90;;;;;;4912994;29;20586;-75
2023/09/22 03:50:55;;;;;;;1.80;0.80;;;15.30;99.90;;;;;;4928427;29;20579;-75
2023/09/22 03:53:22;;;;;;;2.43;0.80;;;15.30;99.90;;;;;;4920332;29;20629;-74
2023/09/22 03:55:49;;;;;;;1.90;0.80;;;15.40;99.90;;;;;;4928977;29;20649;-75
2023/09/22 03:58:16;;;;;;;2.33;1.10;;;15.40;99.90;;;;;;4914144;29;21028;-75
2023/09/22 04:00:43;;;;;;;1.50;0.80;;;15.40;99.90;;;;;;4928808;29;20954;-75
2023/09/22 04:03:09;;;;;;;1.77;0.70;;;15.40;99.90;;;;;;4912488;29;21180;-75
2023/09/22 04:05:37;;;;;;;2.00;0.80;;;15.40;99.90;;;;;;4881715;29;20597;-75
2023/09/22 04:08:04;;;;;;;2.20;0.90;;;15.40;99.90;;;;;;4928722;29;21153;-75
2023/09/22 04:10:29;;;;;;;2.23;0.80;;;15.40;99.90;;;;;;4912860;29;20767;-75
2023/09/22 04:12:55;;;;;;;1.40;0.90;;;15.40;99.90;;;;;;4919984;29;20703;-74
2023/09/22 04:15:23;;;;;;;2.67;0.93;;;15.40;99.90;;;;;;4912823;29;20202;-75
2023/09/22 04:17:50;;;;;;;2.03;0.80;;;15.30;99.90;;;;;;4914068;29;20270;-75
2023/09/22 04:20:26;;;;;;;3.77;1.10;;;15.30;99.90;;;;;;4912780;29;20598;-74
2023/09/22 04:22:53;;;;;;;4.20;0.80;;;15.40;99.90;;;;;;4915768;29;20616;-74
2023/09/22 04:25:29;;;;;;;2.33;0.80;;;15.40;99.90;;;;;;4918097;29;21005;-75
2023/09/22 04:28:07;;;;;;;2.17;0.80;;;15.40;99.90;;;;;;4932427;29;20617;-75
2023/09/22 04:30:37;;;;;;;1.70;0.70;;;15.40;99.90;;;;;;4932176;29;20593;-75
2023/09/22 04:33:04;;;;;;;1.90;0.90;;;15.50;99.90;;;;;;4939705;29;20660;-74
2023/09/22 04:35:34;;;;;;;2.43;1.20;;;15.50;99.90;;;;;;4900671;29;20729;-75
2023/09/22 04:38:01;;;;;;;3.60;0.70;;;15.50;99.90;;;;;;4918374;29;20928;-75
2023/09/22 04:40:29;;;;;;;1.90;0.90;;;15.60;99.90;;;;;;4918519;29;20585;-75
2023/09/22 04:42:55;;;;;;;2.53;0.80;;;15.60;99.90;;;;;;4915689;29;20640;-75
2023/09/22 04:45:21;;;;;;;3.40;0.80;;;15.70;99.90;;;;;;4916100;29;20619;-75
2023/09/22 04:47:47;;;;;;;2.00;0.97;;;15.70;99.90;;;;;;4917619;29;20662;-74
2023/09/22 04:50:17;;;;;;;2.40;0.90;;;15.80;99.90;;;;;;4900129;29;20593;-74
2023/09/22 04:52:44;;;;;;;4.33;1.53;;;15.80;99.90;;;;;;4916169;29;20621;-74
2023/09/22 04:55:10;;;;;;;6.70;1.80;;;15.90;99.90;;;;;;4918638;29;20676;-75
2023/09/22 04:57:36;;;;;;;3.70;1.43;;;15.90;99.90;;;;;;4938345;29;21145;-75
2023/09/22 05:00:15;;;;;;;7.07;1.00;;;16.00;99.90;;;;;;4916909;29;20642;-75
2023/09/22 05:02:44;;;;;;;3.53;0.93;;;16.00;99.90;;;;;;4931826;29;20680;-74
2023/09/22 05:05:11;;;;;;;5.27;0.80;;;16.10;99.90;;;;;;4931849;29;20594;-75
2023/09/22 05:07:39;;;;;;;1.40;0.83;;;16.10;99.90;;;;;;4917643;29;20653;-75
2023/09/22 05:10:05;;;;;;;3.60;0.80;;;16.10;99.90;;;;;;4919713;29;20612;-75
2023/09/22 05:12:31;;;;;;;1.93;0.80;;;16.20;99.90;;;;;;4917682;29;20733;-74
2023/09/22 05:14:58;;;;;;;2.03;0.63;;;16.20;99.90;;;;;;4916778;29;20721;-74
2023/09/22 05:17:24;;;;;;;2.97;0.90;;;16.30;99.90;;;;;;4933335;29;21305;-75
2023/09/22 05:19:50;;;;;;;5.23;0.80;;;16.30;99.90;;;;;;4945843;29;20684;-75
2023/09/22 05:22:17;;;;;;;2.23;1.10;;;16.30;99.90;;;;;;4932615;29;20773;-75
2023/09/22 05:24:44;;;;;;;1.83;0.90;;;16.30;99.90;;;;;;4915314;29;20621;-74
2023/09/22 05:27:10;;;;;;;2.30;0.90;;;16.20;99.90;;;;;;4923118;29;20684;-75
2023/09/22 05:29:36;;;;;;;2.70;0.90;;;16.20;99.90;;;;;;4923095;29;21185;-75
2023/09/22 05:32:01;;;;;;;3.30;0.80;;;16.30;99.90;;;;;;4930720;29;20738;-75
2023/09/22 05:34:28;;;;;;;2.40;0.80;;;16.30;99.90;;;;;;4922825;29;20614;-75
2023/09/22 05:36:53;;;;;;;3.47;0.87;;;16.20;99.90;;;;;;4930885;29;20185;-75
2023/09/22 05:39:20;;;;;;;2.47;0.87;;;16.30;99.90;;;;;;4930936;29;21142;-75
2023/09/22 05:41:49;;;;;;;2.90;0.73;;;16.20;99.90;;;;;;4930617;29;20658;-75
2023/09/22 05:44:17;;;;;;;2.10;0.80;;;16.20;99.90;;;;;;4915880;29;20641;-75
2023/09/22 05:46:44;;;;;;;5.53;1.33;;;16.20;99.90;;;;;;4916024;29;20991;-75
2023/09/22 05:49:14;;;;;;;2.43;1.07;;;16.10;99.90;;;;;;4916088;29;21180;-75
2023/09/22 05:51:43;;;;;;;3.40;0.87;;;16.10;99.90;;;;;;4930491;29;20653;-75
2023/09/22 05:54:09;;;;;;;2.53;0.90;;;16.10;99.90;;;;;;4930282;29;20642;-76
2023/09/22 05:56:35;;;;;;;2.27;0.70;;;16.10;99.90;;;;;;4915924;29;21421;-75
2023/09/22 05:59:03;;;;;;;4.20;0.90;;;16.10;99.90;;;;;;4916147;29;20542;-76
2023/09/22 06:01:30;;;;;;;2.83;0.90;;;16.10;99.90;;;;;;4930287;29;20622;-75
2023/09/22 06:03:56;;;;;;;2.83;1.10;;;16.10;99.90;;;;;;4915677;29;20585;-75
2023/09/22 06:06:22;;;;;;;5.53;1.10;;;16.10;99.90;;;;;;4915751;29;20601;-75
2023/09/22 06:08:47;;;;;;;3.80;1.33;;;16.10;99.90;;;;;;4930442;29;20217;-75
2023/09/22 06:11:14;;;;;;;3.57;1.37;;;16.10;99.90;;;;;;4914397;29;20552;-75
2023/09/22 06:13:40;;;;;;;2.53;1.10;;;16.10;99.90;;;;;;4898536;29;20879;-75
2023/09/22 06:16:06;;;;;;;2.70;0.83;;;16.20;99.90;;;;;;4922106;29;20593;-75
2023/09/22 06:18:32;;;;;;;1.87;0.70;;;16.20;99.90;;;;;;4914359;29;20621;-76
2023/09/22 06:21:00;;;;;;;1.80;0.80;;;16.20;99.90;;;;;;4915662;29;20588;-76
2023/09/22 06:23:27;;;;;;;2.07;0.70;;;16.20;99.90;;;;;;4914167;29;20589;-76
2023/09/22 06:25:54;;;;;;;4.70;0.80;;;16.30;99.90;;;;;;4914249;29;20593;-76
2023/09/22 06:28:20;;;;;;;2.03;0.70;;;16.30;99.90;;;;;;4915429;29;20597;-76
2023/09/22 06:30:47;;;;;;;1.30;0.60;;;16.30;99.90;;;;;;4930082;29;20626;-77
2023/09/22 06:33:16;;;;;;;1.67;0.77;;;16.40;99.90;;;;;;4929527;29;20609;-76
2023/09/22 06:35:46;;;;;;;1.90;0.70;;;16.50;99.90;;;;;;4898263;29;20625;-75
2023/09/22 06:38:13;;;;;;;1.50;0.80;;;16.50;99.90;;;;;;4913781;29;20598;-75
2023/09/22 06:40:40;;;;;;;1.60;0.70;;;16.60;99.90;;;;;;4913923;29;20600;-75
2023/09/22 06:43:08;;;;;;;1.90;0.80;;;16.70;99.90;;;;;;4929279;29;20626;-76
2023/09/22 06:45:37;;;;;;;1.87;0.73;;;16.70;99.90;;;;;;4897601;29;20609;-76
2023/09/22 06:48:05;;;;;;;1.80;0.80;;;16.80;99.90;;;;;;4913833;29;21006;-76
2023/09/22 06:50:38;;;;;;;3.87;0.83;;;16.80;99.90;;;;;;4913667;29;20645;-76
2023/09/22 06:53:04;;;;;;;2.20;1.10;;;16.90;99.90;;;;;;4914851;29;21028;-75
2023/09/22 06:55:32;;;;;;;2.77;0.90;;;17.10;99.90;;;;;;4929402;29;20693;-76
2023/09/22 06:58:01;;;;;;;1.83;0.90;;;17.20;99.90;;;;;;4898028;29;20654;-75
2023/09/22 07:00:28;;;;;;;2.40;0.80;;;17.30;99.90;;;;;;4914798;29;21039;-76
2023/09/22 07:02:55;;;;;;;2.00;0.80;;;17.30;99.90;;;;;;4913329;29;20918;-76
2023/09/22 07:05:21;;;;;;;2.30;1.00;;;17.30;99.90;;;;;;4905688;29;20589;-76
2023/09/22 07:07:49;;;;;;;2.83;0.80;;;17.30;99.90;;;;;;4922704;29;20946;-76
2023/09/22 07:10:16;;;;;;;1.80;0.80;;;17.40;99.90;;;;;;4897883;29;20598;-76
2023/09/22 07:12:42;;;;;;;2.17;0.70;;;17.40;99.90;;;;;;4913888;29;20609;-75
2023/09/22 07:15:10;;;;;;;1.60;0.63;;;17.50;99.90;;;;;;4928905;29;20638;-76
2023/09/22 07:17:35;;;;;;;4.00;0.70;;;17.50;99.90;;;;;;4921311;29;20598;-76
2023/09/22 07:20:04;;;;;;;1.37;0.60;;;17.70;99.90;;;;;;4913483;29;20597;-76
2023/09/22 07:22:33;;;;;;;1.57;0.60;;;17.70;99.90;;;;;;4889639;29;20610;-76
2023/09/22 07:24:59;;;;;;;3.97;0.80;;;17.80;99.90;;;;;;4897533;29;20605;-76
2023/09/22 07:27:25;;;;;;;1.40;0.63;;;18.00;99.90;;;;;;4921147;29;20593;-76
2023/09/22 07:29:51;;;;;;;1.70;0.73;;;18.10;99.90;;;;;;4913448;29;20586;-77
2023/09/22 07:32:19;;;;;;;3.73;0.80;;;18.40;99.90;;;;;;4921609;29;20621;-76
2023/09/22 07:34:45;;;;;;;2.57;0.60;;;18.70;99.90;;;;;;4941637;29;20628;-76
2023/09/22 07:37:12;;;;;;;1.87;0.70;;;19.10;99.90;;;;;;4917612;29;20673;-78
2023/09/22 07:39:38;;;;;;;1.40;0.60;;;19.30;99.90;;;;;;4897682;29;20586;-78
2023/09/22 07:42:04;;;;;;;1.30;0.60;;;19.40;99.90;;;;;;4913242;29;20638;-78
2023/09/22 07:44:30;;;;;;;1.83;0.60;;;19.70;99.90;;;;;;4897264;29;20605;-78
2023/09/22 07:46:58;;;;;;;2.63;0.60;;;20.10;99.90;;;;;;4897681;29;20597;-78
2023/09/22 07:49:25;;;;;;;1.40;0.53;;;20.40;99.90;;;;;;4897624;29;20658;-78
2023/09/22 07:51:51;;;;;;;1.87;0.60;;;20.70;99.90;;;;;;4881829;29;20621;-78
2023/09/22 07:54:18;;;;;;;1.90;0.60;;;20.90;99.90;;;;;;4914139;29;20665;-77
2023/09/22 07:56:46;;;;;;;2.50;0.80;;;21.00;99.90;;;;;;4916483;29;20605;-77
2023/09/22 07:59:16;;;;;;;2.50;0.70;;;21.10;99.90;;;;;;4917151;29;20598;-78
2023/09/22 08:01:43;;;;;;;3.27;0.70;;;21.30;99.90;;;;;;4916843;29;20613;-78
2023/09/22 08:04:16;;;;;;;2.07;0.57;;;21.60;99.90;;;;;;4924308;29;20648;-77
2023/09/22 08:06:41;;;;;;;2.73;0.60;;;22.10;99.90;;;;;;4925593;29;21158;-77
2023/09/22 08:09:07;;;;;;;2.27;0.57;;;22.70;99.90;;;;;;4918109;29;20649;-77
2023/09/22 08:11:33;;;;;;;1.87;0.80;;;23.20;99.90;;;;;;4932249;29;20206;-77
2023/09/22 08:14:00;;;;;;;2.80;0.60;;;23.30;99.90;;;;;;4932142;29;20214;-77
2023/09/22 08:16:28;;;;;;;1.53;0.50;;;23.30;99.90;;;;;;4932425;29;20585;-77
2023/09/22 08:18:55;;;;;;;2.40;0.53;;;23.50;99.90;;;;;;4900936;29;20589;-77
2023/09/22 08:21:21;;;;;;;1.40;0.60;;;23.80;99.90;;;;;;4925400;29;20752;-77
2023/09/22 08:23:47;;;;;;;2.07;0.70;;;24.00;99.90;;;;;;4916548;29;20597;-77
2023/09/22 08:26:17;;;;;;;1.70;0.70;;;24.50;99.90;;;;;;4917756;29;20600;-77
2023/09/22 08:28:47;;;;;;;3.00;0.60;;;25.30;99.90;;;;;;4916367;29;20593;-77
2023/09/22 08:31:13;;;;;;;1.37;0.60;;;26.00;99.90;;;;;;4916294;29;20956;-78
2023/09/22 08:33:40;;;;;;;1.60;0.60;;;26.70;99.90;;;;;;4917326;29;20993;-77
2023/09/22 08:36:06;;;;;;;2.50;0.80;;;27.30;99.90;;;;;;4932210;29;20594;-77
2023/09/22 08:38:33;;;;;;;2.73;0.60;;;27.80;99.90;;;;;;4917412;29;20664;-77
2023/09/22 08:41:03;;;;;;;1.60;0.60;;;28.40;99.90;;;;;;4931983;29;20688;-78
2023/09/22 08:43:30;;;;;;;1.40;0.50;;;29.10;99.90;;;;;;4897186;29;20707;-77
2023/09/22 08:45:57;;;;;;;1.77;0.80;;;29.60;99.90;;;;;;4898422;29;20620;-78
2023/09/22 08:48:26;;;;;;;1.50;0.60;;;29.90;99.90;;;;;;4897412;29;20661;-79
2023/09/22 08:50:52;;;;;;;1.50;0.50;;;30.10;99.90;;;;;;4897037;29;20596;-80
2023/09/22 08:53:19;;;;;;;1.50;0.50;;;30.10;99.90;;;;;;4898059;29;20610;-80
2023/09/22 08:55:45;;;;;;;1.50;0.60;;;30.30;99.90;;;;;;4898416;29;20218;-80
2023/09/22 08:58:11;;;;;;;1.83;0.50;;;30.30;99.90;;;;;;4897126;29;21211;-79
2023/09/22 09:00:38;;;;;;;4.10;0.60;;;30.20;99.90;;;;;;4898158;29;20582;-79
2023/09/22 09:03:09;;;;;;;1.67;0.50;;;30.00;99.90;;;;;;4912482;29;20247;-79
2023/09/22 09:05:36;;;;;;;1.37;0.43;;;29.90;99.90;;;;;;4898013;29;21006;-79
2023/09/22 09:08:16;;;;;;;1.40;0.50;;;30.20;99.90;;;;;;4895998;29;20592;-79
2023/09/22 09:10:43;;;;;;;1.30;0.50;;;30.30;99.90;;;;;;4912496;29;20591;-79
2023/09/22 09:13:17;;;;;;;1.87;0.70;;;30.10;99.90;;;;;;4896381;29;20705;-76
2023/09/22 09:15:48;;;;;;;1.67;0.60;;;29.50;99.90;;;;;;4897627;29;20634;-76
2023/09/22 09:18:19;;;;;;;1.60;0.50;;;28.90;99.40;;;;;;4912425;29;20609;-76
2023/09/22 09:20:47;;;;;;;5.27;0.73;;;28.50;99.70;;;;;;4896580;29;20579;-77
2023/09/22 09:23:21;;;;;;;2.50;0.70;;;28.50;99.90;;;;;;4880724;29;20610;-79
2023/09/22 09:25:54;;;;;;;3.13;0.73;;;28.70;99.90;;;;;;4896680;29;20654;-77
2023/09/22 09:28:21;;;;;;;1.70;0.60;;;28.90;99.90;;;;;;4897624;29;20614;-77
2023/09/22 09:30:50;;;;;;;1.60;0.50;;;28.70;99.90;;;;;;4912229;29;20673;-77
2023/09/22 09:33:20;;;;;;;1.40;0.40;;;28.60;99.90;;;;;;4896051;29;20689;-78
2023/09/22 09:35:46;;;;;;;1.87;0.57;;;28.60;98.80;;;;;;4897459;29;20627;-78
2023/09/22 09:38:16;;;;;;;1.50;0.63;;;28.30;98.00;;;;;;4900346;29;20605;-78
2023/09/22 09:40:43;;;;;;;1.40;0.50;;;27.90;96.50;;;;;;4912313;29;20618;-78
2023/09/22 09:43:11;;;;;;;1.30;0.50;;;27.60;97.00;;;;;;4913172;29;21227;-78
2023/09/22 09:45:48;;;;;;;1.23;0.40;;;27.20;96.40;;;;;;4916249;29;20702;-78
2023/09/22 09:48:19;;;;;;;1.67;0.50;;;27.10;97.00;;;;;;4915183;29;20586;-78
2023/09/22 09:50:50;;;;;;;1.67;0.60;;;27.30;98.20;;;;;;4930782;29;20593;-77
2023/09/22 09:53:27;;;;;;;2.27;0.60;;;28.00;99.90;;;;;;4916076;29;20621;-79
2023/09/22 09:55:59;;;;;;;1.50;0.60;;;28.70;99.90;;;;;;4916341;29;21029;-78
2023/09/22 09:58:30;;;;;;;2.77;0.60;;;29.60;98.90;;;;;;4914911;29;20652;-79
2023/09/22 10:00:58;;;;;;;2.20;0.70;;;30.60;99.90;;;;;;4898958;29;20586;-79
2023/09/22 10:03:25;;;;;;;1.43;0.50;;;31.40;97.80;;;;;;4930329;29;20620;-79
2023/09/22 10:05:52;;;;;;;1.50;0.47;;;32.00;96.60;;;;;;4898999;29;20599;-79
2023/09/22 10:08:22;;;;;;;1.70;0.67;;;32.20;93.80;;;;;;4930412;29;21148;-79
2023/09/22 10:10:50;;;;;;;1.97;0.70;;;32.40;91.70;;;;;;4914815;29;20693;-79
2023/09/22 10:13:17;;;;;;;1.50;0.50;;;32.30;90.60;;;;;;4898675;29;20629;-78
2023/09/22 10:15:53;;;;;;;3.00;0.77;;;32.00;87.20;;;;;;4914640;29;21209;-79
2023/09/22 10:18:20;;;;;;;1.60;0.67;;;31.70;83.00;;;;;;4930321;29;20602;-79
2023/09/22 10:20:47;;;;;;;1.90;0.60;;;31.70;87.50;;;;;;4914616;29;20582;-79
2023/09/22 10:23:18;;;;;;;1.77;0.60;;;31.70;85.60;;;;;;4915343;29;20620;-79
2023/09/22 10:26:14;;;;;;;1.60;0.60;;;31.60;83.00;;;;;;4914448;29;21177;-78
2023/09/22 10:28:39;;;;;;;1.70;0.50;;;31.50;84.30;;;;;;4898457;29;20594;-78
2023/09/22 10:31:05;;;;;;;1.40;0.57;;;31.30;82.60;;;;;;4929810;29;20600;-79
2023/09/22 10:33:32;;;;;;;1.53;0.50;;;31.10;81.60;;;;;;4913980;29;20214;-79
2023/09/22 10:36:00;;;;;;;2.13;0.80;;;30.90;81.20;;;;;;4914281;29;20190;-79
2023/09/22 10:38:27;;;;;;;1.53;0.57;;;30.80;81.90;;;;;;4915414;29;20601;-79
2023/09/22 10:41:01;;;;;;;1.37;0.50;;;30.90;83.40;;;;;;4915321;29;20682;-79
2023/09/22 10:43:29;;;;;;;1.30;0.50;;;30.90;80.50;;;;;;4913872;29;20648;-79
2023/09/22 10:45:55;;;;;;;2.00;0.60;;;30.70;79.70;;;;;;4915366;29;20601;-79
2023/09/22 10:48:21;;;;;;;1.50;0.60;;;30.70;80.90;;;;;;4913824;29;20597;-79
2023/09/22 10:50:52;;;;;;;1.50;0.60;;;30.70;81.20;;;;;;4929861;29;20603;-79
2023/09/22 10:53:18;;;;;;;1.60;0.60;;;30.80;79.10;;;;;;4913714;29;20203;-79
2023/09/22 10:55:45;;;;;;;1.60;0.60;;;30.90;80.40;;;;;;4913879;29;20753;-79
2023/09/22 10:58:16;;;;;;;1.40;0.50;;;30.70;76.50;;;;;;4913948;29;20599;-79
2023/09/22 11:01:07;;;;;;;1.93;0.60;;;30.40;73.60;;;;;;4922926;29;20594;-79
2023/09/22 11:03:33;;;;;;;2.63;0.60;;;30.00;73.10;;;;;;4913471;29;20597;-79
2023/09/22 11:06:06;;;;;;;1.90;0.57;;;29.70;75.00;;;;;;4913736;29;21020;-79
2023/09/22 11:08:34;;;;;;;2.83;0.57;;;29.50;74.70;;;;;;4914751;29;20189;-79
2023/09/22 11:11:00;;;;;;;1.97;0.70;;;29.40;75.20;;;;;;4929358;29;20689;-79
2023/09/22 11:13:27;;;;;;;2.27;0.60;;;29.40;75.50;;;;;;4928965;29;20613;-79
2023/09/22 11:15:59;;;;;;;2.20;0.77;;;29.40;76.70;;;;;;4914832;29;21226;-78
2023/09/22 11:18:33;;;;;;;1.77;0.60;;;29.50;76.70;;;;;;4913518;29;21085;-79
2023/09/22 11:21:11;;;;;;;2.13;0.50;;;29.70;76.60;;;;;;4897936;29;20599;-79
2023/09/22 11:23:41;;;;;;;1.80;0.60;;;29.80;75.90;;;;;;4915234;29;20592;-79
2023/09/22 11:26:12;;;;;;;1.73;0.60;;;29.90;76.40;;;;;;4914753;29;20685;-79
2023/09/22 11:28:48;;;;;;;2.53;0.60;;;29.90;73.20;;;;;;4913576;29;20605;-79
2023/09/22 11:31:15;;;;;;;2.37;0.60;;;29.70;70.90;;;;;;4912959;29;20605;-79
2023/09/22 11:33:42;;;;;;;3.00;0.80;;;29.30;70.30;;;;;;4914466;29;20582;-79
2023/09/22 11:36:09;;;;;;;1.97;0.60;;;29.10;70.00;;;;;;4913523;29;20590;-79
2023/09/22 11:38:39;;;;;;;2.70;0.60;;;28.70;69.40;;;;;;4913417;29;20582;-79
2023/09/22 11:41:10;;;;;;;1.80;0.67;;;28.30;69.20;;;;;;4913964;29;20704;-79
2023/09/22 11:43:44;;;;;;;2.43;0.60;;;28.00;68.90;;;;;;4917632;29;20666;-78
2023/09/22 11:46:14;;;;;;;2.00;0.70;;;27.80;70.70;;;;;;4909310;29;20604;-79
2023/09/22 11:48:56;;;;;;;1.43;0.57;;;27.80;72.20;;;;;;4908509;29;20598;-79
2023/09/22 11:51:22;;;;;;;1.57;0.50;;;27.80;70.90;;;;;;4924408;29;20583;-78
2023/09/22 11:53:48;;;;;;;1.50;0.67;;;27.70;71.00;;;;;;4941808;29;20668;-78
2023/09/22 11:56:14;;;;;;;1.67;0.60;;;27.50;70.00;;;;;;4921355;29;20705;-78
2023/09/22 11:58:40;;;;;;;1.70;0.50;;;27.30;70.00;;;;;;4930655;29;20622;-78
2023/09/22 12:01:09;;;;;;;1.40;0.50;;;27.10;68.90;;;;;;4914202;29;20597;-79
2023/09/22 12:03:35;;;;;;;1.53;0.60;;;26.80;68.90;;;;;;4911161;29;20586;-78
2023/09/22 12:06:02;;;;;;;1.90;0.70;;;26.70;70.30;;;;;;4922390;29;20582;-78
2023/09/22 12:08:28;;;;;;;2.30;0.60;;;26.60;70.50;;;;;;4938219;29;20598;-78
2023/09/22 12:10:54;;;;;;;1.50;0.60;;;26.60;72.50;;;;;;4940460;29;20589;-78
2023/09/22 12:13:20;;;;;;;1.43;0.60;;;26.70;73.40;;;;;;4920966;29;20626;-79
2023/09/22 12:15:46;;;;;;;1.50;0.70;;;26.80;73.90;;;;;;4933482;29;20213;-79
2023/09/22 12:18:11;;;;;;;1.40;0.50;;;26.90;74.50;;;;;;4921527;29;20190;-79
2023/09/22 12:20:37;;;;;;;2.50;0.97;;;27.10;75.00;;;;;;4913504;29;20272;-79
2023/09/22 12:23:03;;;;;;;1.70;0.60;;;27.20;74.60;;;;;;4893873;29;20709;-79
2023/09/22 12:25:29;;;;;;;2.33;0.80;;;27.30;74.80;;;;;;4916917;29;20187;-78
2023/09/22 12:27:54;;;;;;;3.10;0.60;;;27.40;74.70;;;;;;4915547;29;20641;-79
2023/09/22 12:30:20;;;;;;;1.60;0.57;;;27.50;73.30;;;;;;4922236;29;20694;-79
2023/09/22 12:32:46;;;;;;;1.80;0.60;;;27.40;71.30;;;;;;4913870;29;20286;-78
2023/09/22 12:35:12;;;;;;;1.93;0.57;;;27.20;69.60;;;;;;4906763;29;20634;-78
2023/09/22 12:37:38;;;;;;;1.90;0.60;;;27.00;69.00;;;;;;4914716;29;20185;-78
2023/09/22 12:40:04;;;;;;;1.70;0.53;;;26.70;68.80;;;;;;4913115;29;20590;-79
2023/09/22 12:42:34;;;;;;;2.60;0.50;;;26.40;69.50;;;;;;4898135;29;20570;-79
2023/09/22 12:45:00;;;;;;;1.40;0.50;;;26.20;70.40;;;;;;4932105;29;20593;-79
2023/09/22 12:47:27;;;;;;;1.30;0.50;;;26.10;71.20;;;;;;4917888;29;20593;-79
2023/09/22 12:49:53;;;;;;;1.97;0.60;;;26.10;70.90;;;;;;4909761;29;20597;-79